Time;durP1;ratioP1;P1;durP2;ratioP2;P2;SDS_P1;SDS_P2;PMS_P1;PMS_P2;Temp;Humidity;BMP_temperature;BMP_pressure;BME280_temperature;BME280_humidity;BME280_pressure;Samples;Min_cycle;Max_cycle;Signal;HPM_P1;HPM_P2
2022/01/07 00:01:42;;;;;;;11.10;4.57;;;;;;;;;;8359697;28;20455;-66
2022/01/07 00:05:43;;;;;;;12.45;4.93;;;;;;;;;;8357740;28;20571;-66
2022/01/07 00:09:43;;;;;;;15.98;5.63;;;;;;;;;;8360710;28;20025;-66
2022/01/07 00:13:43;;;;;;;10.63;5.32;;;;;;;;;;8360670;28;20585;-66
2022/01/07 00:17:44;;;;;;;14.70;5.57;;;;;;;;;;8360030;28;20021;-66
2022/01/07 00:21:44;;;;;;;14.90;5.35;;;;;;;;;;8361162;28;20285;-66
2022/01/07 00:25:44;;;;;;;19.35;5.95;;;;;;;;;;8359770;28;20473;-66
2022/01/07 00:29:44;;;;;;;12.57;5.45;;;;;;;;;;8360578;28;20039;-66
2022/01/07 00:33:45;;;;;;;15.65;5.40;;;;;;;;;;8357804;28;20318;-66
2022/01/07 00:37:45;;;;;;;13.70;5.10;;;;;;;;;;8361487;28;20016;-66
2022/01/07 00:41:45;;;;;;;9.73;3.33;;;;;;;;;;8361125;28;20097;-66
2022/01/07 00:45:46;;;;;;;8.95;3.00;;;;;;;;;;8358500;28;20032;-66
2022/01/07 00:49:46;;;;;;;6.45;2.75;;;;;;;;;;8359617;28;20055;-66
2022/01/07 00:53:46;;;;;;;5.38;2.75;;;;;;;;;;8361795;28;20324;-66
2022/01/07 00:57:47;;;;;;;8.65;3.15;;;;;;;;;;8358604;28;20186;-66
2022/01/07 01:01:47;;;;;;;6.03;2.40;;;;;;;;;;8360779;28;20406;-66
2022/01/07 01:05:49;;;;;;;5.38;2.55;;;;;;;;;;8357445;28;20482;-65
2022/01/07 01:09:49;;;;;;;8.05;2.67;;;;;;;;;;8356445;28;20552;-66
2022/01/07 01:13:49;;;;;;;9.75;3.20;;;;;;;;;;8356880;28;20020;-67
2022/01/07 01:17:50;;;;;;;6.32;2.78;;;;;;;;;;8355606;28;20067;-66
2022/01/07 01:21:50;;;;;;;5.22;3.08;;;;;;;;;;8358677;28;20024;-66
2022/01/07 01:25:51;;;;;;;8.93;2.78;;;;;;;;;;8357490;28;20017;-66
2022/01/07 01:29:51;;;;;;;7.13;2.80;;;;;;;;;;8358919;28;20048;-66
2022/01/07 01:33:51;;;;;;;9.45;3.10;;;;;;;;;;8357933;28;20044;-66
2022/01/07 01:37:52;;;;;;;8.45;2.90;;;;;;;;;;8358623;28;20031;-66
2022/01/07 01:41:52;;;;;;;6.60;2.65;;;;;;;;;;8357375;28;20681;-66
2022/01/07 01:45:52;;;;;;;8.20;2.17;;;;;;;;;;8356122;28;20263;-66
2022/01/07 01:49:52;;;;;;;7.32;2.67;;;;;;;;;;8358064;28;20090;-66
2022/01/07 01:53:53;;;;;;;5.60;2.92;;;;;;;;;;8355421;28;20105;-65
2022/01/07 01:57:54;;;;;;;7.47;3.50;;;;;;;;;;8357313;28;20475;-66
2022/01/07 02:01:54;;;;;;;10.68;4.82;;;;;;;;;;8354732;28;20047;-66
2022/01/07 02:05:55;;;;;;;16.50;5.75;;;;;;;;;;8354775;28;20112;-65
2022/01/07 02:09:55;;;;;;;9.68;4.55;;;;;;;;;;8357401;28;20036;-66
2022/01/07 02:13:55;;;;;;;8.98;4.32;;;;;;;;;;8356200;28;20629;-65
2022/01/07 02:17:57;;;;;;;12.43;5.10;;;;;;;;;;8355272;28;20397;-65
2022/01/07 02:21:57;;;;;;;8.65;4.30;;;;;;;;;;8356590;28;20021;-66
2022/01/07 02:25:59;;;;;;;9.55;4.40;;;;;;;;;;8355869;28;20032;-66
2022/01/07 02:30:00;;;;;;;7.80;3.90;;;;;;;;;;8356145;28;20498;-65
2022/01/07 02:34:00;;;;;;;7.32;3.15;;;;;;;;;;8355322;28;20059;-65
2022/01/07 02:38:00;;;;;;;7.47;3.72;;;;;;;;;;8354891;28;20111;-66
2022/01/07 02:42:01;;;;;;;6.82;3.63;;;;;;;;;;8355880;28;20529;-66
2022/01/07 02:46:01;;;;;;;10.15;4.43;;;;;;;;;;8355539;28;20152;-66
2022/01/07 02:50:05;;;;;;;6.47;3.72;;;;;;;;;;8356756;28;20028;-66
2022/01/07 02:54:06;;;;;;;11.13;4.15;;;;;;;;;;8356284;28;20497;-66
2022/01/07 02:58:06;;;;;;;8.30;3.85;;;;;;;;;;8354281;28;20406;-66
2022/01/07 03:02:06;;;;;;;7.70;3.60;;;;;;;;;;8355851;28;20087;-66
2022/01/07 03:06:07;;;;;;;11.90;3.85;;;;;;;;;;8355865;28;20411;-66
2022/01/07 03:10:08;;;;;;;6.85;4.00;;;;;;;;;;8354964;28;20456;-66
2022/01/07 03:14:09;;;;;;;13.38;4.80;;;;;;;;;;8354773;28;20027;-66
2022/01/07 03:18:09;;;;;;;6.38;3.30;;;;;;;;;;8359952;28;20036;-66
2022/01/07 03:22:09;;;;;;;10.60;3.88;;;;;;;;;;8362808;28;20035;-66
2022/01/07 03:26:10;;;;;;;7.80;3.05;;;;;;;;;;8363343;28;20511;-66
2022/01/07 03:30:12;;;;;;;7.93;3.25;;;;;;;;;;8360981;28;20028;-66
2022/01/07 03:34:12;;;;;;;11.77;3.65;;;;;;;;;;8360340;28;20145;-66
2022/01/07 03:38:13;;;;;;;12.18;4.10;;;;;;;;;;8363624;28;20036;-66
2022/01/07 03:42:13;;;;;;;7.28;3.47;;;;;;;;;;8361910;28;20319;-66
2022/01/07 03:46:13;;;;;;;6.75;3.42;;;;;;;;;;8362274;28;20044;-66
2022/01/07 03:50:14;;;;;;;7.45;3.90;;;;;;;;;;8360623;28;20039;-66
2022/01/07 03:54:15;;;;;;;11.23;4.50;;;;;;;;;;8362796;28;20274;-66
2022/01/07 03:58:15;;;;;;;12.35;4.88;;;;;;;;;;8360767;28;20045;-66
2022/01/07 04:02:15;;;;;;;11.25;4.72;;;;;;;;;;8360144;28;20040;-66
2022/01/07 04:06:20;;;;;;;14.50;4.95;;;;;;;;;;8360201;28;20092;-66
2022/01/07 04:10:20;;;;;;;9.25;4.68;;;;;;;;;;8361136;28;20036;-66
2022/01/07 04:14:20;;;;;;;14.77;5.82;;;;;;;;;;8359144;28;20025;-66
2022/01/07 04:18:21;;;;;;;9.40;5.07;;;;;;;;;;8359627;28;20400;-66
2022/01/07 04:22:21;;;;;;;7.43;4.57;;;;;;;;;;8361347;28;20945;-66
2022/01/07 04:26:21;;;;;;;9.50;4.50;;;;;;;;;;8358402;28;20157;-66
2022/01/07 04:30:22;;;;;;;12.07;4.85;;;;;;;;;;8359005;28;20032;-66
2022/01/07 04:34:22;;;;;;;12.23;4.28;;;;;;;;;;8360314;28;20028;-66
2022/01/07 04:38:22;;;;;;;7.85;3.72;;;;;;;;;;8360207;28;20241;-66
2022/01/07 04:42:22;;;;;;;9.07;5.13;;;;;;;;;;8360407;28;20033;-66
2022/01/07 04:46:23;;;;;;;10.48;4.63;;;;;;;;;;8358752;28;20079;-67
2022/01/07 04:50:23;;;;;;;13.55;4.90;;;;;;;;;;8359183;28;20068;-66
2022/01/07 04:54:24;;;;;;;12.40;4.53;;;;;;;;;;8361500;28;20075;-66
2022/01/07 04:58:24;;;;;;;10.63;4.45;;;;;;;;;;8359320;28;20075;-66
2022/01/07 05:02:27;;;;;;;10.95;4.30;;;;;;;;;;8359358;28;20352;-66
2022/01/07 05:06:45;;;;;;;10.05;4.55;;;;;;;;;;8358266;28;20607;-66
2022/01/07 05:10:45;;;;;;;7.65;4.32;;;;;;;;;;8359653;28;20602;-66
2022/01/07 05:14:46;;;;;;;8.80;4.70;;;;;;;;;;8359599;28;20048;-66
2022/01/07 05:18:46;;;;;;;7.35;3.97;;;;;;;;;;8358498;28;20032;-66
2022/01/07 05:22:46;;;;;;;10.65;4.07;;;;;;;;;;8358323;28;20021;-66
2022/01/07 05:26:46;;;;;;;12.65;4.65;;;;;;;;;;8360701;28;20122;-66
2022/01/07 05:30:46;;;;;;;11.00;4.38;;;;;;;;;;8358239;28;20032;-66
2022/01/07 05:34:47;;;;;;;7.95;4.40;;;;;;;;;;8358549;28;20093;-66
2022/01/07 05:38:47;;;;;;;10.95;4.25;;;;;;;;;;8358469;28;20056;-67
2022/01/07 05:42:47;;;;;;;9.60;4.53;;;;;;;;;;8355879;28;20020;-66
2022/01/07 05:46:48;;;;;;;10.00;4.72;;;;;;;;;;8358714;28;20081;-66
2022/01/07 05:50:48;;;;;;;9.40;4.07;;;;;;;;;;8358560;28;20169;-66
2022/01/07 05:54:50;;;;;;;11.10;4.50;;;;;;;;;;8357937;28;20052;-66
2022/01/07 05:58:50;;;;;;;9.50;4.25;;;;;;;;;;8356485;28;20020;-66
2022/01/07 06:02:51;;;;;;;10.82;4.22;;;;;;;;;;8356856;28;20036;-66
2022/01/07 06:06:51;;;;;;;9.82;3.80;;;;;;;;;;8359389;28;20709;-66
2022/01/07 06:10:51;;;;;;;7.32;3.72;;;;;;;;;;8359830;28;20040;-66
2022/01/07 06:14:51;;;;;;;11.60;3.70;;;;;;;;;;8357248;28;20032;-66
2022/01/07 06:18:55;;;;;;;7.53;3.25;;;;;;;;;;8355566;28;20072;-66
2022/01/07 06:22:55;;;;;;;12.73;4.40;;;;;;;;;;8357443;28;20094;-66
2022/01/07 06:26:55;;;;;;;8.45;3.30;;;;;;;;;;8357658;28;20024;-66
2022/01/07 06:30:56;;;;;;;7.65;3.15;;;;;;;;;;8356150;28;20270;-66
2022/01/07 06:34:56;;;;;;;5.85;2.95;;;;;;;;;;8355567;28;20028;-66
2022/01/07 06:38:58;;;;;;;6.93;3.35;;;;;;;;;;8355647;28;20271;-66
2022/01/07 06:42:58;;;;;;;5.55;2.95;;;;;;;;;;8356477;28;20060;-66
2022/01/07 06:46:58;;;;;;;6.18;2.75;;;;;;;;;;8356391;28;20044;-67
2022/01/07 06:50:58;;;;;;;6.88;2.70;;;;;;;;;;8357215;28;20037;-66
2022/01/07 06:54:59;;;;;;;10.80;2.92;;;;;;;;;;8357102;28;20048;-66
2022/01/07 06:58:59;;;;;;;9.40;3.00;;;;;;;;;;8356980;28;20032;-66
2022/01/07 07:02:59;;;;;;;6.50;2.83;;;;;;;;;;8355974;28;20051;-66
2022/01/07 07:06:59;;;;;;;7.45;3.17;;;;;;;;;;8357636;28;20378;-66
2022/01/07 07:11:00;;;;;;;5.82;2.58;;;;;;;;;;8356746;28;20040;-66
2022/01/07 07:15:00;;;;;;;10.13;2.65;;;;;;;;;;8355199;28;20473;-66
2022/01/07 07:19:00;;;;;;;4.35;2.60;;;;;;;;;;8357543;28;20524;-66
2022/01/07 07:23:00;;;;;;;7.40;3.22;;;;;;;;;;8356297;28;20024;-66
2022/01/07 07:27:01;;;;;;;4.88;3.42;;;;;;;;;;8358479;28;20044;-66
2022/01/07 07:31:04;;;;;;;7.87;2.73;;;;;;;;;;8353470;28;20779;-66
2022/01/07 07:36:26;;;;;;;5.20;2.70;;;;;;;;;;8355582;28;20778;-66
2022/01/07 07:39:24;;;;;;;6.15;2.50;;;;;;;;;;8356111;28;20036;-66
2022/01/07 07:43:25;;;;;;;7.30;2.77;;;;;;;;;;8356824;28;20055;-67
2022/01/07 07:47:25;;;;;;;11.52;3.25;;;;;;;;;;8355143;28;20267;-67
2022/01/07 07:51:25;;;;;;;8.60;3.28;;;;;;;;;;8356393;28;20032;-67
2022/01/07 07:55:26;;;;;;;9.18;3.20;;;;;;;;;;8358039;28;20277;-67
2022/01/07 07:59:26;;;;;;;7.18;3.10;;;;;;;;;;8358989;28;20029;-67
2022/01/07 08:03:26;;;;;;;7.50;3.47;;;;;;;;;;8362910;28;20513;-67
2022/01/07 08:07:26;;;;;;;11.38;3.55;;;;;;;;;;8363868;28;20021;-67
2022/01/07 08:11:31;;;;;;;5.93;2.72;;;;;;;;;;8363819;28;20044;-67
2022/01/07 08:19:54;;;;;;;5.05;3.03;;;;;;;;;;8363208;28;20083;-67
2022/01/07 08:23:55;;;;;;;8.77;2.70;;;;;;;;;;8362759;28;20032;-67
2022/01/07 08:27:56;;;;;;;5.50;2.92;;;;;;;;;;8361251;28;20032;-67
2022/01/07 08:36:16;;;;;;;4.07;2.60;;;;;;;;;;8364961;28;20047;-67
2022/01/07 08:40:16;;;;;;;4.82;2.50;;;;;;;;;;8363712;28;20561;-66
2022/01/07 08:44:16;;;;;;;4.10;2.28;;;;;;;;;;8365548;28;20522;-67
2022/01/07 08:48:17;;;;;;;4.10;2.20;;;;;;;;;;8360654;28;20359;-68
2022/01/07 08:52:17;;;;;;;3.38;2.40;;;;;;;;;;8365180;28;20032;-67
2022/01/07 08:56:18;;;;;;;5.72;2.65;;;;;;;;;;8364415;28;20016;-67
2022/01/07 09:00:18;;;;;;;5.38;2.13;;;;;;;;;;8367193;28;20066;-68
2022/01/07 09:04:19;;;;;;;3.50;2.03;;;;;;;;;;8365056;28;20040;-67
2022/01/07 09:08:19;;;;;;;5.78;2.40;;;;;;;;;;8354128;28;20432;-67
2022/01/07 09:12:19;;;;;;;5.67;2.77;;;;;;;;;;8365960;28;20043;-67
2022/01/07 09:16:20;;;;;;;4.73;2.50;;;;;;;;;;8361121;28;20267;-68
2022/01/07 09:20:21;;;;;;;5.07;2.42;;;;;;;;;;8356132;28;20989;-67
2022/01/07 09:24:22;;;;;;;6.10;2.70;;;;;;;;;;8358639;28;20560;-67
2022/01/07 09:28:22;;;;;;;5.38;3.10;;;;;;;;;;8358209;28;20028;-67
2022/01/07 09:32:22;;;;;;;10.50;3.30;;;;;;;;;;8358186;28;20400;-67
2022/01/07 09:36:22;;;;;;;5.00;2.92;;;;;;;;;;8357210;28;20743;-67
2022/01/07 09:40:23;;;;;;;5.88;3.38;;;;;;;;;;8358170;28;20374;-68
2022/01/07 09:44:23;;;;;;;5.00;3.05;;;;;;;;;;8357153;28;20481;-67
2022/01/07 09:48:23;;;;;;;6.22;3.15;;;;;;;;;;8356957;28;20606;-67
2022/01/07 09:52:26;;;;;;;4.63;2.75;;;;;;;;;;8358288;28;20528;-67
2022/01/07 09:56:26;;;;;;;6.82;3.35;;;;;;;;;;8356781;28;20470;-67
2022/01/07 10:00:31;;;;;;;6.95;3.20;;;;;;;;;;8356903;28;20137;-67
2022/01/07 10:04:35;;;;;;;6.47;2.97;;;;;;;;;;8355361;28;20127;-67
2022/01/07 10:08:35;;;;;;;5.70;2.95;;;;;;;;;;8356953;28;20020;-67
2022/01/07 10:13:00;;;;;;;4.32;2.90;;;;;;;;;;8352234;28;20064;-67
2022/01/07 10:17:01;;;;;;;4.82;3.00;;;;;;;;;;8347511;28;20066;-67
2022/01/07 10:21:06;;;;;;;5.20;2.70;;;;;;;;;;8352741;28;20570;-67
2022/01/07 10:25:06;;;;;;;4.95;2.70;;;;;;;;;;8356694;28;20658;-67
2022/01/07 10:29:26;;;;;;;4.68;2.83;;;;;;;;;;8355430;28;20101;-67
2022/01/07 10:33:37;;;;;;;4.97;3.10;;;;;;;;;;8356030;28;20262;-67
2022/01/07 10:37:56;;;;;;;5.10;3.10;;;;;;;;;;8355572;28;20020;-67
2022/01/07 10:42:00;;;;;;;6.05;3.85;;;;;;;;;;8357513;28;20031;-67
2022/01/07 10:46:11;;;;;;;4.55;3.05;;;;;;;;;;8356358;28;20150;-67
2022/01/07 10:50:12;;;;;;;7.03;3.70;;;;;;;;;;8355926;28;20030;-67
2022/01/07 10:54:16;;;;;;;5.82;3.50;;;;;;;;;;8356585;28;20048;-67
2022/01/07 10:58:16;;;;;;;6.60;3.40;;;;;;;;;;8353095;28;20074;-67
2022/01/07 11:02:31;;;;;;;6.10;3.00;;;;;;;;;;8354705;28;20072;-67
2022/01/07 11:06:31;;;;;;;5.43;3.80;;;;;;;;;;8355276;28;20146;-68
2022/01/07 11:10:32;;;;;;;4.78;3.65;;;;;;;;;;8354695;28;20021;-67
2022/01/07 11:14:35;;;;;;;9.73;5.10;;;;;;;;;;8353116;28;20024;-67
2022/01/07 11:18:36;;;;;;;6.05;3.95;;;;;;;;;;8356172;28;20409;-67
2022/01/07 11:22:40;;;;;;;6.93;4.40;;;;;;;;;;8355991;28;20398;-67
2022/01/07 11:26:40;;;;;;;;;;;;;;;;;;8357449;28;20016;-67
2022/01/07 11:30:40;;;;;;;10.13;4.78;;;;;;;;;;8354792;28;20418;-67
2022/01/07 11:34:41;;;;;;;7.22;4.57;;;;;;;;;;8351826;28;20017;-67
2022/01/07 11:38:46;;;;;;;12.98;5.85;;;;;;;;;;8362247;28;20356;-67
2022/01/07 11:42:47;;;;;;;7.97;4.15;;;;;;;;;;8361186;28;20020;-67
2022/01/07 11:46:48;;;;;;;4.70;3.72;;;;;;;;;;8360953;28;20436;-67
2022/01/07 11:50:48;;;;;;;4.22;2.80;;;;;;;;;;8360723;28;20025;-67
2022/01/07 11:55:07;;;;;;;4.65;3.35;;;;;;;;;;8360649;28;20013;-67
2022/01/07 11:59:11;;;;;;;4.75;2.78;;;;;;;;;;8362157;28;20127;-67
2022/01/07 12:03:11;;;;;;;4.75;3.20;;;;;;;;;;8359421;28;20040;-68
2022/01/07 12:07:12;;;;;;;3.53;3.00;;;;;;;;;;8360361;28;20152;-67
2022/01/07 12:11:12;;;;;;;3.60;2.63;;;;;;;;;;8360897;28;20032;-67
2022/01/07 12:15:12;;;;;;;3.83;2.70;;;;;;;;;;8359770;28;20248;-67
2022/01/07 12:19:23;;;;;;;2.78;2.50;;;;;;;;;;8360720;28;20032;-68
2022/01/07 12:23:23;;;;;;;2.67;2.15;;;;;;;;;;8363332;28;20029;-67
2022/01/07 12:27:24;;;;;;;2.60;2.40;;;;;;;;;;8364165;28;20123;-68
2022/01/07 12:31:24;;;;;;;3.45;2.88;;;;;;;;;;8365492;28;20556;-68
2022/01/07 12:35:28;;;;;;;4.78;2.72;;;;;;;;;;8363530;28;20489;-67
2022/01/07 12:39:30;;;;;;;2.97;2.53;;;;;;;;;;8364899;28;20230;-68
2022/01/07 12:43:32;;;;;;;4.13;2.85;;;;;;;;;;8362056;28;20090;-68
2022/01/07 12:47:33;;;;;;;3.35;2.42;;;;;;;;;;8362163;28;20899;-68
2022/01/07 12:51:35;;;;;;;4.65;3.03;;;;;;;;;;8363699;28;20028;-68
2022/01/07 12:55:35;;;;;;;5.35;3.17;;;;;;;;;;8363022;28;20035;-68
2022/01/07 12:59:35;;;;;;;17.13;9.57;;;;;;;;;;8364568;28;20020;-68
2022/01/07 13:03:35;;;;;;;274.15;136.32;;;;;;;;;;8361766;28;20044;-68
2022/01/07 13:07:43;;;;;;;64.07;36.15;;;;;;;;;;8364559;28;20079;-67
2022/01/07 13:11:47;;;;;;;21.92;15.63;;;;;;;;;;8364660;28;20073;-68
2022/01/07 13:15:55;;;;;;;18.30;12.68;;;;;;;;;;8363929;28;20036;-67
2022/01/07 13:19:56;;;;;;;9.80;6.05;;;;;;;;;;8364187;28;20040;-68
2022/01/07 13:23:57;;;;;;;57.28;32.33;;;;;;;;;;8363494;28;20038;-68
2022/01/07 13:27:58;;;;;;;40.42;21.90;;;;;;;;;;8362084;28;20332;-68
2022/01/07 13:32:00;;;;;;;39.22;12.35;;;;;;;;;;8360841;28;20047;-67
2022/01/07 13:36:02;;;;;;;110.15;38.97;;;;;;;;;;8361329;28;20028;-68
2022/01/07 13:40:04;;;;;;;64.22;49.35;;;;;;;;;;8364689;28;20541;-68
2022/01/07 13:44:06;;;;;;;11.63;7.90;;;;;;;;;;8363687;28;20029;-68
2022/01/07 13:48:11;;;;;;;9.35;6.20;;;;;;;;;;8361961;28;20037;-68
2022/01/07 13:52:11;;;;;;;7.47;4.30;;;;;;;;;;8362110;28;20028;-67
2022/01/07 13:56:11;;;;;;;9.63;4.70;;;;;;;;;;8360758;28;20028;-67
2022/01/07 14:00:12;;;;;;;7.65;4.22;;;;;;;;;;8361464;28;20059;-67
2022/01/07 14:04:13;;;;;;;7.82;4.63;;;;;;;;;;8361852;28;20407;-68
2022/01/07 14:08:19;;;;;;;6.70;3.97;;;;;;;;;;8363252;28;20039;-68
2022/01/07 14:12:23;;;;;;;4.03;3.10;;;;;;;;;;8362935;28;20482;-68
2022/01/07 14:16:23;;;;;;;13.68;7.55;;;;;;;;;;8360266;28;20032;-68
2022/01/07 14:20:23;;;;;;;6.47;4.25;;;;;;;;;;8362335;28;20044;-68
2022/01/07 14:24:23;;;;;;;9.25;5.70;;;;;;;;;;8361303;28;20041;-67
2022/01/07 14:28:24;;;;;;;10.27;6.20;;;;;;;;;;8362070;28;20032;-67
2022/01/07 14:32:25;;;;;;;3.80;2.90;;;;;;;;;;8362540;28;20489;-68
2022/01/07 14:36:26;;;;;;;3.17;2.85;;;;;;;;;;8363657;28;20028;-67
2022/01/07 14:40:26;;;;;;;5.88;5.05;;;;;;;;;;8363327;28;20028;-67
2022/01/07 14:44:26;;;;;;;6.20;3.05;;;;;;;;;;8362747;28;20028;-68
2022/01/07 14:48:28;;;;;;;4.10;3.08;;;;;;;;;;8361879;28;20043;-68
2022/01/07 14:52:29;;;;;;;8.73;7.85;;;;;;;;;;8360334;28;20090;-68
2022/01/07 14:56:29;;;;;;;14.90;12.93;;;;;;;;;;8362676;28;20077;-68
2022/01/07 15:00:29;;;;;;;6.10;4.75;;;;;;;;;;8359776;28;20594;-68
2022/01/07 15:04:29;;;;;;;40.35;31.25;;;;;;;;;;8358851;28;20029;-68
2022/01/07 15:08:29;;;;;;;22.35;15.90;;;;;;;;;;8357246;28;20716;-68
2022/01/07 15:12:30;;;;;;;6.85;4.97;;;;;;;;;;8367176;28;21329;-68
2022/01/07 15:16:36;;;;;;;2.90;2.70;;;;;;;;;;8370462;28;20037;-68
2022/01/07 15:20:36;;;;;;;3.28;2.95;;;;;;;;;;8367802;28;20649;-67
2022/01/07 15:24:37;;;;;;;24.42;19.52;;;;;;;;;;8370571;28;20020;-68
2022/01/07 15:28:37;;;;;;;35.53;23.85;;;;;;;;;;8370720;28;20032;-68
2022/01/07 15:32:37;;;;;;;5.77;4.90;;;;;;;;;;8369365;28;20051;-68
2022/01/07 15:36:39;;;;;;;4.35;3.95;;;;;;;;;;8363585;28;20271;-70
2022/01/07 15:40:39;;;;;;;12.18;10.80;;;;;;;;;;8370828;28;20732;-68
2022/01/07 15:44:40;;;;;;;4.30;3.85;;;;;;;;;;8369906;28;20476;-68
2022/01/07 15:48:40;;;;;;;5.28;3.28;;;;;;;;;;8367427;28;20544;-68
2022/01/07 15:52:40;;;;;;;15.68;10.73;;;;;;;;;;8371397;28;20355;-68
2022/01/07 15:56:40;;;;;;;7.50;5.30;;;;;;;;;;8369669;28;20024;-68
2022/01/07 16:00:41;;;;;;;35.67;20.57;;;;;;;;;;8368790;28;20036;-68
2022/01/07 16:04:41;;;;;;;33.97;17.27;;;;;;;;;;8368787;28;20355;-68
2022/01/07 16:08:41;;;;;;;49.22;23.10;;;;;;;;;;8369854;28;20322;-68
2022/01/07 16:12:41;;;;;;;106.17;49.40;;;;;;;;;;8370434;28;20020;-68
2022/01/07 16:16:42;;;;;;;140.63;51.50;;;;;;;;;;8368249;28;20346;-68
2022/01/07 16:20:42;;;;;;;57.47;18.47;;;;;;;;;;8366141;28;20735;-67
2022/01/07 16:24:42;;;;;;;79.85;27.08;;;;;;;;;;8363462;28;20728;-67
2022/01/07 16:28:43;;;;;;;72.45;26.88;;;;;;;;;;8361336;28;20052;-67
2022/01/07 16:32:43;;;;;;;27.38;14.27;;;;;;;;;;8360764;28;20029;-67
2022/01/07 16:36:43;;;;;;;17.55;9.65;;;;;;;;;;8360876;28;20111;-67
2022/01/07 16:40:44;;;;;;;15.63;9.27;;;;;;;;;;8362093;28;20028;-68
2022/01/07 16:44:44;;;;;;;16.63;9.88;;;;;;;;;;8360506;28;20574;-67
2022/01/07 16:48:45;;;;;;;7.40;4.85;;;;;;;;;;8359404;28;20118;-68
2022/01/07 16:52:45;;;;;;;4.18;3.20;;;;;;;;;;8359289;28;20519;-67
2022/01/07 16:56:45;;;;;;;4.75;3.92;;;;;;;;;;8357687;28;20543;-67
2022/01/07 17:00:45;;;;;;;2.47;2.00;;;;;;;;;;8359339;28;20098;-67
2022/01/07 17:04:45;;;;;;;2.23;2.03;;;;;;;;;;8359432;28;20036;-67
2022/01/07 17:08:46;;;;;;;1.40;1.30;;;;;;;;;;8361678;28;21221;-67
2022/01/07 17:12:46;;;;;;;3.40;2.53;;;;;;;;;;8360818;28;20024;-67
2022/01/07 17:16:46;;;;;;;3.92;3.53;;;;;;;;;;8357986;28;20485;-67
2022/01/07 17:20:47;;;;;;;2.55;1.80;;;;;;;;;;8360387;28;20103;-67
2022/01/07 17:24:47;;;;;;;5.65;3.70;;;;;;;;;;8359704;28;20058;-67
2022/01/07 17:28:47;;;;;;;6.50;4.25;;;;;;;;;;8359129;28;20567;-67
2022/01/07 17:32:47;;;;;;;2.05;1.52;;;;;;;;;;8357923;28;20521;-67
2022/01/07 17:36:48;;;;;;;2.33;2.00;;;;;;;;;;8357423;28;20027;-67
2022/01/07 17:40:48;;;;;;;3.72;2.63;;;;;;;;;;8360148;28;20086;-68
2022/01/07 17:44:48;;;;;;;6.03;3.60;;;;;;;;;;8359640;28;20367;-67
2022/01/07 17:48:48;;;;;;;1.75;1.65;;;;;;;;;;8358102;28;20041;-68
2022/01/07 17:52:48;;;;;;;3.25;1.55;;;;;;;;;;8359027;28;20184;-67
2022/01/07 17:56:49;;;;;;;3.35;2.38;;;;;;;;;;8358434;28;20321;-67
2022/01/07 18:00:49;;;;;;;2.22;1.98;;;;;;;;;;8357516;28;20089;-67
2022/01/07 18:04:49;;;;;;;2.70;1.95;;;;;;;;;;8359060;28;20032;-67
2022/01/07 18:08:50;;;;;;;1.58;1.40;;;;;;;;;;8357430;28;20024;-67
2022/01/07 18:12:50;;;;;;;2.00;1.40;;;;;;;;;;8358833;28;20650;-67
2022/01/07 18:16:51;;;;;;;1.55;1.38;;;;;;;;;;8358227;28;20060;-67
2022/01/07 18:20:52;;;;;;;1.48;1.38;;;;;;;;;;8357180;28;20097;-67
2022/01/07 18:24:52;;;;;;;2.25;1.60;;;;;;;;;;8358634;28;20796;-67
2022/01/07 18:28:52;;;;;;;3.17;1.67;;;;;;;;;;8358143;28;20024;-67
2022/01/07 18:32:52;;;;;;;1.67;1.58;;;;;;;;;;8355751;28;20123;-67
2022/01/07 18:36:53;;;;;;;2.17;1.80;;;;;;;;;;8357600;28;20029;-67
2022/01/07 18:40:53;;;;;;;2.65;2.03;;;;;;;;;;8358327;28;20754;-68
2022/01/07 18:44:54;;;;;;;4.18;2.30;;;;;;;;;;8354716;28;20056;-67
2022/01/07 18:48:54;;;;;;;3.00;2.30;;;;;;;;;;8357585;28;20187;-67
2022/01/07 18:52:54;;;;;;;3.45;2.20;;;;;;;;;;8355755;28;20031;-66
2022/01/07 18:56:54;;;;;;;3.28;2.10;;;;;;;;;;8357300;28;20111;-67
2022/01/07 19:00:55;;;;;;;2.95;2.10;;;;;;;;;;8356874;28;20584;-66
2022/01/07 19:04:55;;;;;;;3.42;2.00;;;;;;;;;;8355629;28;20138;-66
2022/01/07 19:08:56;;;;;;;4.50;2.25;;;;;;;;;;8357744;28;20044;-67
2022/01/07 19:12:56;;;;;;;2.28;2.08;;;;;;;;;;8356798;28;20371;-67
2022/01/07 19:16:56;;;;;;;4.40;2.30;;;;;;;;;;8354983;28;20029;-67
2022/01/07 19:20:57;;;;;;;4.80;2.58;;;;;;;;;;8355330;28;20504;-67
2022/01/07 19:24:57;;;;;;;4.15;2.97;;;;;;;;;;8356288;28;20032;-67
2022/01/07 19:28:57;;;;;;;3.40;2.58;;;;;;;;;;8356291;28;20294;-67
2022/01/07 19:32:57;;;;;;;4.07;3.00;;;;;;;;;;8355436;28;20453;-67
2022/01/07 19:36:57;;;;;;;4.07;2.78;;;;;;;;;;8353232;28;20557;-67
2022/01/07 19:40:57;;;;;;;4.30;2.40;;;;;;;;;;8356733;28;20070;-67
2022/01/07 19:44:57;;;;;;;4.28;2.53;;;;;;;;;;8355763;28;20024;-67
2022/01/07 19:48:58;;;;;;;3.53;2.35;;;;;;;;;;8352160;28;20083;-67
2022/01/07 19:52:58;;;;;;;2.95;2.17;;;;;;;;;;8356442;28;20556;-67
2022/01/07 19:56:58;;;;;;;2.92;2.60;;;;;;;;;;8357769;28;20443;-67
2022/01/07 20:01:00;;;;;;;3.47;2.58;;;;;;;;;;8361262;28;20036;-67
2022/01/07 20:05:00;;;;;;;5.38;2.58;;;;;;;;;;8361850;28;20381;-67
2022/01/07 20:09:00;;;;;;;4.68;2.33;;;;;;;;;;8361024;28;20031;-67
2022/01/07 20:13:00;;;;;;;3.40;2.55;;;;;;;;;;8359008;28;20028;-67
2022/01/07 20:17:01;;;;;;;3.78;2.50;;;;;;;;;;8359558;28;20033;-68
2022/01/07 20:21:01;;;;;;;4.68;2.42;;;;;;;;;;8360732;28;20451;-67
2022/01/07 20:25:02;;;;;;;2.40;2.10;;;;;;;;;;8359931;28;20029;-67
2022/01/07 20:29:02;;;;;;;1.92;1.80;;;;;;;;;;8363158;28;20052;-67
2022/01/07 20:33:02;;;;;;;3.90;2.42;;;;;;;;;;8357855;28;20537;-67
2022/01/07 20:37:03;;;;;;;2.20;2.00;;;;;;;;;;8360552;28;20501;-67
2022/01/07 20:41:03;;;;;;;2.88;2.13;;;;;;;;;;8360196;28;20052;-67
2022/01/07 20:45:04;;;;;;;6.83;3.00;;;;;;;;;;8358350;28;20068;-68
2022/01/07 20:49:04;;;;;;;3.45;2.10;;;;;;;;;;8359697;28;20283;-68
2022/01/07 20:53:05;;;;;;;3.75;2.63;;;;;;;;;;8359348;28;20073;-67
2022/01/07 20:57:05;;;;;;;5.23;1.77;;;;;;;;;;8359842;28;20028;-67
2022/01/07 21:01:06;;;;;;;2.28;1.90;;;;;;;;;;8359406;28;21259;-68
2022/01/07 21:05:07;;;;;;;2.63;1.97;;;;;;;;;;8358196;28;20060;-67
2022/01/07 21:09:09;;;;;;;5.63;2.42;;;;;;;;;;8359452;28;20675;-67
2022/01/07 21:13:09;;;;;;;2.97;2.67;;;;;;;;;;8360138;28;20028;-67
2022/01/07 21:17:10;;;;;;;5.00;3.17;;;;;;;;;;8358043;28;20039;-67
2022/01/07 21:21:10;;;;;;;10.35;6.25;;;;;;;;;;8359347;28;20529;-67
2022/01/07 21:25:12;;;;;;;15.07;8.80;;;;;;;;;;8359107;28;20024;-67
2022/01/07 21:29:12;;;;;;;7.18;4.43;;;;;;;;;;8358331;28;20116;-67
2022/01/07 21:33:14;;;;;;;8.70;5.38;;;;;;;;;;8361320;28;20029;-67
2022/01/07 21:37:15;;;;;;;4.60;3.53;;;;;;;;;;8363078;28;20262;-67
2022/01/07 21:41:15;;;;;;;3.17;2.47;;;;;;;;;;8364734;28;20021;-68
2022/01/07 21:45:15;;;;;;;7.82;2.60;;;;;;;;;;8363460;28;20298;-67
2022/01/07 21:49:15;;;;;;;4.30;3.28;;;;;;;;;;8361978;28;20032;-67
2022/01/07 21:53:16;;;;;;;3.15;2.13;;;;;;;;;;8363656;28;20024;-67
2022/01/07 21:57:19;;;;;;;4.20;2.42;;;;;;;;;;8363957;28;20078;-68
2022/01/07 22:01:19;;;;;;;3.22;2.00;;;;;;;;;;8362808;28;20112;-67
2022/01/07 22:05:20;;;;;;;2.85;2.00;;;;;;;;;;8360954;28;20028;-68
2022/01/07 22:09:20;;;;;;;2.25;2.05;;;;;;;;;;8363261;28;20032;-67
2022/01/07 22:13:21;;;;;;;1.80;1.45;;;;;;;;;;8360408;28;20424;-67
2022/01/07 22:17:21;;;;;;;1.85;1.40;;;;;;;;;;8360603;28;20068;-67
2022/01/07 22:21:21;;;;;;;3.63;1.85;;;;;;;;;;8351885;28;20024;-67
2022/01/07 22:25:21;;;;;;;3.13;2.53;;;;;;;;;;8357578;28;20025;-67
2022/01/07 22:29:22;;;;;;;1.70;1.60;;;;;;;;;;8356823;28;20028;-67
2022/01/07 22:33:22;;;;;;;1.33;1.23;;;;;;;;;;8356116;28;20659;-67
2022/01/07 22:37:22;;;;;;;1.55;1.40;;;;;;;;;;8357186;28;20096;-67
2022/01/07 22:41:23;;;;;;;2.30;1.70;;;;;;;;;;8357110;28;20028;-67
2022/01/07 22:45:23;;;;;;;3.80;2.40;;;;;;;;;;8353407;28;20366;-67
2022/01/07 22:49:23;;;;;;;3.08;2.35;;;;;;;;;;8354643;28;20359;-67
2022/01/07 22:53:23;;;;;;;5.60;2.80;;;;;;;;;;8356000;28;20078;-67
2022/01/07 22:57:23;;;;;;;6.50;2.90;;;;;;;;;;8354941;28;20022;-67
2022/01/07 23:01:24;;;;;;;3.95;2.28;;;;;;;;;;8356197;28;20042;-67
2022/01/07 23:05:25;;;;;;;4.83;2.20;;;;;;;;;;8353880;28;20482;-67
2022/01/07 23:09:25;;;;;;;2.92;2.10;;;;;;;;;;8355550;28;20377;-70
2022/01/07 23:13:26;;;;;;;6.38;2.53;;;;;;;;;;8355258;28;20176;-67
2022/01/07 23:17:26;;;;;;;5.38;2.58;;;;;;;;;;8354082;28;20106;-67
2022/01/07 23:21:26;;;;;;;4.03;2.50;;;;;;;;;;8354939;28;20497;-67
2022/01/07 23:25:26;;;;;;;4.00;2.67;;;;;;;;;;8355315;28;20477;-67
2022/01/07 23:29:27;;;;;;;4.17;2.60;;;;;;;;;;8354394;28;20784;-67
2022/01/07 23:33:27;;;;;;;5.60;2.60;;;;;;;;;;8360319;28;20279;-67
2022/01/07 23:37:27;;;;;;;4.25;2.50;;;;;;;;;;8365943;28;20115;-67
2022/01/07 23:41:27;;;;;;;6.63;3.53;;;;;;;;;;8366961;28;20259;-67
2022/01/07 23:45:28;;;;;;;7.85;4.18;;;;;;;;;;8364934;28;20037;-67
2022/01/07 23:49:28;;;;;;;7.30;3.75;;;;;;;;;;8362308;28;20029;-67
2022/01/07 23:53:28;;;;;;;4.43;3.53;;;;;;;;;;8368949;28;20023;-67
2022/01/07 23:57:29;;;;;;;7.03;3.85;;;;;;;;;;8366984;28;20278;-67
